sensor_id;sensor_type;location;lat;lon;timestamp;pressure;altitude;pressure_sealevel;temperature
78859;BMP280;68210;52.032;4.634;2023-04-03T00:00:58;102962.09;;;5.48
78859;BMP280;68210;52.032;4.634;2023-04-03T00:02:59;102968.03;;;5.50
78859;BMP280;68210;52.032;4.634;2023-04-03T00:05:00;102971.25;;;5.47
78859;BMP280;68210;52.032;4.634;2023-04-03T00:07:00;102979.88;;;5.44
78859;BMP280;68210;52.032;4.634;2023-04-03T00:09:01;102980.38;;;5.37
78859;BMP280;68210;52.032;4.634;2023-04-03T00:11:02;102972.28;;;5.37
78859;BMP280;68210;52.032;4.634;2023-04-03T00:13:04;102975.00;;;5.37
78859;BMP280;68210;52.032;4.634;2023-04-03T00:15:05;102972.84;;;5.34
78859;BMP280;68210;52.032;4.634;2023-04-03T00:17:05;102977.63;;;5.27
78859;BMP280;68210;52.032;4.634;2023-04-03T00:19:06;102976.53;;;5.28
78859;BMP280;68210;52.032;4.634;2023-04-03T00:21:09;102978.72;;;5.26
78859;BMP280;68210;52.032;4.634;2023-04-03T00:23:10;102973.03;;;5.22
78859;BMP280;68210;52.032;4.634;2023-04-03T00:25:10;102990.78;;;5.23
78859;BMP280;68210;52.032;4.634;2023-04-03T00:27:10;102977.63;;;5.27
78859;BMP280;68210;52.032;4.634;2023-04-03T00:29:11;102981.41;;;5.26
78859;BMP280;68210;52.032;4.634;2023-04-03T00:31:14;102985.13;;;5.20
78859;BMP280;68210;52.032;4.634;2023-04-03T00:33:15;102981.34;;;5.16
78859;BMP280;68210;52.032;4.634;2023-04-03T00:35:16;102977.56;;;5.17
78859;BMP280;68210;52.032;4.634;2023-04-03T00:37:17;102977.56;;;5.12
78859;BMP280;68210;52.032;4.634;2023-04-03T00:39:17;102989.94;;;5.13
78859;BMP280;68210;52.032;4.634;2023-04-03T00:41:18;102986.44;;;5.13
78859;BMP280;68210;52.032;4.634;2023-04-03T00:43:24;102982.34;;;5.00
78859;BMP280;68210;52.032;4.634;2023-04-03T00:45:35;102986.13;;;5.04
78859;BMP280;68210;52.032;4.634;2023-04-03T00:47:37;102983.97;;;5.01
78859;BMP280;68210;52.032;4.634;2023-04-03T00:49:39;102985.53;;;4.97
78859;BMP280;68210;52.032;4.634;2023-04-03T00:51:40;102989.59;;;5.00
78859;BMP280;68210;52.032;4.634;2023-04-03T00:53:48;102995.78;;;5.00
78859;BMP280;68210;52.032;4.634;2023-04-03T00:55:51;102986.34;;;4.98
78859;BMP280;68210;52.032;4.634;2023-04-03T00:57:53;102993.59;;;4.97
78859;BMP280;68210;52.032;4.634;2023-04-03T00:59:58;102989.84;;;4.98
78859;BMP280;68210;52.032;4.634;2023-04-03T01:02:00;102987.16;;;4.98
78859;BMP280;68210;52.032;4.634;2023-04-03T01:04:01;102989.84;;;4.93
78859;BMP280;68210;52.032;4.634;2023-04-03T01:06:03;102992.22;;;4.90
78859;BMP280;68210;52.032;4.634;2023-04-03T01:08:03;102991.66;;;4.83
78859;BMP280;68210;52.032;4.634;2023-04-03T01:10:09;102992.50;;;4.88
78859;BMP280;68210;52.032;4.634;2023-04-03T01:12:29;103005.66;;;4.85
78859;BMP280;68210;52.032;4.634;2023-04-03T01:14:29;102996.75;;;4.84
78859;BMP280;68210;52.032;4.634;2023-04-03T01:16:30;102999.97;;;4.82
78859;BMP280;68210;52.032;4.634;2023-04-03T01:18:32;103001.03;;;4.81
78859;BMP280;68210;52.032;4.634;2023-04-03T01:25:02;103002.13;;;4.84
78859;BMP280;68210;52.032;4.634;2023-04-03T01:27:05;103005.09;;;4.83
78859;BMP280;68210;52.032;4.634;2023-04-03T01:29:06;103006.41;;;4.81
78859;BMP280;68210;52.032;4.634;2023-04-03T01:31:29;103001.50;;;4.73
78859;BMP280;68210;52.032;4.634;2023-04-03T01:33:32;102997.44;;;4.65
78859;BMP280;68210;52.032;4.634;2023-04-03T01:35:32;102998.53;;;4.69
78859;BMP280;68210;52.032;4.634;2023-04-03T01:37:33;103000.59;;;4.57
78859;BMP280;68210;52.032;4.634;2023-04-03T01:39:33;103001.19;;;4.64
78859;BMP280;68210;52.032;4.634;2023-04-03T01:41:33;103014.91;;;4.68
78859;BMP280;68210;52.032;4.634;2023-04-03T01:43:34;103003.59;;;4.61
78859;BMP280;68210;52.032;4.634;2023-04-03T01:45:34;103000.31;;;4.54
78859;BMP280;68210;52.032;4.634;2023-04-03T01:47:35;102999.53;;;4.58
78859;BMP280;68210;52.032;4.634;2023-04-03T01:49:35;102995.78;;;4.59
78859;BMP280;68210;52.032;4.634;2023-04-03T01:51:36;102996.81;;;4.53
78859;BMP280;68210;52.032;4.634;2023-04-03T01:53:36;102997.38;;;4.55
78859;BMP280;68210;52.032;4.634;2023-04-03T01:55:36;102996.50;;;4.50
78859;BMP280;68210;52.032;4.634;2023-04-03T01:57:37;103002.38;;;4.47
78859;BMP280;68210;52.032;4.634;2023-04-03T01:59:37;102990.50;;;4.38
78859;BMP280;68210;52.032;4.634;2023-04-03T02:01:38;102999.16;;;4.45
78859;BMP280;68210;52.032;4.634;2023-04-03T02:03:38;103009.34;;;4.43
78859;BMP280;68210;52.032;4.634;2023-04-03T02:05:48;102999.13;;;4.40
78859;BMP280;68210;52.032;4.634;2023-04-03T02:07:48;102997.19;;;4.36
78859;BMP280;68210;52.032;4.634;2023-04-03T02:09:48;103007.41;;;4.39
78859;BMP280;68210;52.032;4.634;2023-04-03T02:11:49;103009.06;;;4.40
78859;BMP280;68210;52.032;4.634;2023-04-03T02:13:49;103003.09;;;4.33
78859;BMP280;68210;52.032;4.634;2023-04-03T02:15:50;103016.56;;;4.38
78859;BMP280;68210;52.032;4.634;2023-04-03T02:17:50;103010.91;;;4.34
78859;BMP280;68210;52.032;4.634;2023-04-03T02:19:51;103016.50;;;4.33
78859;BMP280;68210;52.032;4.634;2023-04-03T02:21:51;103015.66;;;4.27
78859;BMP280;68210;52.032;4.634;2023-04-03T02:23:51;103022.69;;;4.33
78859;BMP280;68210;52.032;4.634;2023-04-03T02:25:52;103022.16;;;4.31
78859;BMP280;68210;52.032;4.634;2023-04-03T02:27:52;103024.28;;;4.29
78859;BMP280;68210;52.032;4.634;2023-04-03T02:29:52;103024.78;;;4.26
78859;BMP280;68210;52.032;4.634;2023-04-03T02:31:53;103033.09;;;4.25
78859;BMP280;68210;52.032;4.634;2023-04-03T02:33:53;103029.53;;;4.20
78859;BMP280;68210;52.032;4.634;2023-04-03T02:35:55;103034.41;;;4.22
78859;BMP280;68210;52.032;4.634;2023-04-03T02:37:56;103036.78;;;4.19
78859;BMP280;68210;52.032;4.634;2023-04-03T02:39:56;103033.59;;;4.22
78859;BMP280;68210;52.032;4.634;2023-04-03T02:41:57;103029.81;;;4.18
78859;BMP280;68210;52.032;4.634;2023-04-03T02:43:57;103026.00;;;4.14
78859;BMP280;68210;52.032;4.634;2023-04-03T02:45:57;103018.47;;;4.11
78859;BMP280;68210;52.032;4.634;2023-04-03T02:47:58;103018.97;;;4.08
78859;BMP280;68210;52.032;4.634;2023-04-03T02:49:58;103029.19;;;4.11
78859;BMP280;68210;52.032;4.634;2023-04-03T02:51:58;103036.75;;;4.14
78859;BMP280;68210;52.032;4.634;2023-04-03T02:53:59;103044.22;;;4.12
78859;BMP280;68210;52.032;4.634;2023-04-03T02:55:59;103045.06;;;4.13
78859;BMP280;68210;52.032;4.634;2023-04-03T02:58:00;103032.56;;;4.02
78859;BMP280;68210;52.032;4.634;2023-04-03T03:00:00;103031.81;;;4.06
78859;BMP280;68210;52.032;4.634;2023-04-03T03:02:01;103029.28;;;3.95
78859;BMP280;68210;52.032;4.634;2023-04-03T03:04:01;103038.22;;;4.00
78859;BMP280;68210;52.032;4.634;2023-04-03T03:08:03;103034.22;;;4.03
78859;BMP280;68210;52.032;4.634;2023-04-03T03:10:04;103029.84;;;3.97
78859;BMP280;68210;52.032;4.634;2023-04-03T03:12:04;103037.06;;;3.96
78859;BMP280;68210;52.032;4.634;2023-04-03T03:14:05;103042.72;;;3.95
78859;BMP280;68210;52.032;4.634;2023-04-03T03:16:06;103040.09;;;4.00
78859;BMP280;68210;52.032;4.634;2023-04-03T03:18:06;103050.19;;;3.93
78859;BMP280;68210;52.032;4.634;2023-04-03T03:20:07;103043.78;;;3.94
78859;BMP280;68210;52.032;4.634;2023-04-03T03:22:08;103029.75;;;3.87
78859;BMP280;68210;52.032;4.634;2023-04-03T03:24:08;103031.91;;;3.90
78859;BMP280;68210;52.032;4.634;2023-04-03T03:26:10;103045.41;;;3.95
78859;BMP280;68210;52.032;4.634;2023-04-03T03:28:11;103035.81;;;3.78
78859;BMP280;68210;52.032;4.634;2023-04-03T03:30:12;103043.09;;;3.82
78859;BMP280;68210;52.032;4.634;2023-04-03T03:32:12;103044.19;;;3.81
78859;BMP280;68210;52.032;4.634;2023-04-03T03:34:13;103052.72;;;3.78
78859;BMP280;68210;52.032;4.634;2023-04-03T03:36:13;103051.34;;;3.76
78859;BMP280;68210;52.032;4.634;2023-04-03T03:38:13;103048.66;;;3.76
78859;BMP280;68210;52.032;4.634;2023-04-03T03:40:14;103062.81;;;3.71
78859;BMP280;68210;52.032;4.634;2023-04-03T03:42:15;103061.81;;;3.77
78859;BMP280;68210;52.032;4.634;2023-04-03T03:44:15;103059.06;;;3.72
78859;BMP280;68210;52.032;4.634;2023-04-03T03:46:16;103047.81;;;3.70
78859;BMP280;68210;52.032;4.634;2023-04-03T03:48:16;103055.16;;;3.59
78859;BMP280;68210;52.032;4.634;2023-04-03T03:50:17;103053.59;;;3.63
78859;BMP280;68210;52.032;4.634;2023-04-03T03:52:17;103056.22;;;3.58
78859;BMP280;68210;52.032;4.634;2023-04-03T03:54:17;103061.28;;;3.54
78859;BMP280;68210;52.032;4.634;2023-04-03T03:56:18;103065.34;;;3.57
78859;BMP280;68210;52.032;4.634;2023-04-03T03:58:18;103064.78;;;3.55
78859;BMP280;68210;52.032;4.634;2023-04-03T04:00:19;103058.84;;;3.53
78859;BMP280;68210;52.032;4.634;2023-04-03T04:02:19;103062.09;;;3.55
78859;BMP280;68210;52.032;4.634;2023-04-03T04:04:20;103061.78;;;3.51
78859;BMP280;68210;52.032;4.634;2023-04-03T04:06:20;103065.06;;;3.37
78859;BMP280;68210;52.032;4.634;2023-04-03T04:08:21;103054.03;;;3.33
78859;BMP280;68210;52.032;4.634;2023-04-03T04:10:22;103054.69;;;3.24
78859;BMP280;68210;52.032;4.634;2023-04-03T04:12:22;103058.81;;;3.32
78859;BMP280;68210;52.032;4.634;2023-04-03T04:14:22;103062.31;;;3.11
78859;BMP280;68210;52.032;4.634;2023-04-03T04:16:23;103046.44;;;3.09
78859;BMP280;68210;52.032;4.634;2023-04-03T04:18:23;103068.53;;;3.16
78859;BMP280;68210;52.032;4.634;2023-04-03T04:20:24;103061.03;;;3.18
78859;BMP280;68210;52.032;4.634;2023-04-03T04:22:24;103074.53;;;3.23
78859;BMP280;68210;52.032;4.634;2023-04-03T04:24:25;103062.19;;;3.22
78859;BMP280;68210;52.032;4.634;2023-04-03T04:26:25;103066.97;;;3.20
78859;BMP280;68210;52.032;4.634;2023-04-03T04:28:26;103062.69;;;3.19
78859;BMP280;68210;52.032;4.634;2023-04-03T04:30:26;103064.78;;;3.17
78859;BMP280;68210;52.032;4.634;2023-04-03T04:32:27;103070.66;;;3.14
78859;BMP280;68210;52.032;4.634;2023-04-03T04:34:28;103070.97;;;3.18
78859;BMP280;68210;52.032;4.634;2023-04-03T04:36:28;103073.41;;;3.19
78859;BMP280;68210;52.032;4.634;2023-04-03T04:38:30;103071.28;;;3.21
78859;BMP280;68210;52.032;4.634;2023-04-03T04:40:30;103072.41;;;3.25
78859;BMP280;68210;52.032;4.634;2023-04-03T04:42:30;103061.13;;;3.23
78859;BMP280;68210;52.032;4.634;2023-04-03T04:44:31;103056.97;;;3.16
78859;BMP280;68210;52.032;4.634;2023-04-03T04:46:32;103078.69;;;3.14
78859;BMP280;68210;52.032;4.634;2023-04-03T04:48:33;103080.06;;;3.17
78859;BMP280;68210;52.032;4.634;2023-04-03T04:50:33;103072.75;;;3.12
78859;BMP280;68210;52.032;4.634;2023-04-03T04:52:34;103083.47;;;3.12
78859;BMP280;68210;52.032;4.634;2023-04-03T04:54:37;103087.78;;;3.13
78859;BMP280;68210;52.032;4.634;2023-04-03T04:56:40;103086.16;;;3.12
78859;BMP280;68210;52.032;4.634;2023-04-03T04:58:40;103093.72;;;3.15
78859;BMP280;68210;52.032;4.634;2023-04-03T05:00:41;103090.44;;;3.13
78859;BMP280;68210;52.032;4.634;2023-04-03T05:02:41;103091.94;;;3.04
78859;BMP280;68210;52.032;4.634;2023-04-03T05:04:42;103090.81;;;3.01
78859;BMP280;68210;52.032;4.634;2023-04-03T05:06:42;103094.00;;;2.98
78859;BMP280;68210;52.032;4.634;2023-04-03T05:08:42;103097.78;;;3.02
78859;BMP280;68210;52.032;4.634;2023-04-03T05:10:45;103092.44;;;3.02
78859;BMP280;68210;52.032;4.634;2023-04-03T05:12:46;103089.97;;;3.00
78859;BMP280;68210;52.032;4.634;2023-04-03T05:14:46;103089.16;;;3.00
78859;BMP280;68210;52.032;4.634;2023-04-03T05:16:46;103101.03;;;3.03
78859;BMP280;68210;52.032;4.634;2023-04-03T05:18:47;103101.34;;;3.07
78859;BMP280;68210;52.032;4.634;2023-04-03T05:20:49;103085.78;;;3.04
78859;BMP280;68210;52.032;4.634;2023-04-03T05:22:50;103106.06;;;3.16
78859;BMP280;68210;52.032;4.634;2023-04-03T05:24:50;103118.22;;;3.24
78859;BMP280;68210;52.032;4.634;2023-04-03T05:26:51;103107.50;;;3.24
78859;BMP280;68210;52.032;4.634;2023-04-03T05:28:52;103112.38;;;3.27
78859;BMP280;68210;52.032;4.634;2023-04-03T05:30:56;103115.13;;;3.32
78859;BMP280;68210;52.032;4.634;2023-04-03T05:32:58;103116.06;;;3.42
78859;BMP280;68210;52.032;4.634;2023-04-03T05:34:59;103111.88;;;3.46
78859;BMP280;68210;52.032;4.634;2023-04-03T05:36:59;103118.72;;;3.58
78859;BMP280;68210;52.032;4.634;2023-04-03T05:39:00;103120.75;;;3.67
78859;BMP280;68210;52.032;4.634;2023-04-03T05:41:00;103113.34;;;3.58
78859;BMP280;68210;52.032;4.634;2023-04-03T05:43:01;103119.16;;;3.71
78859;BMP280;68210;52.032;4.634;2023-04-03T05:45:02;103116.47;;;3.71
78859;BMP280;68210;52.032;4.634;2023-04-03T05:47:02;103115.97;;;3.74
78859;BMP280;68210;52.032;4.634;2023-04-03T05:49:02;103111.16;;;3.55
78859;BMP280;68210;52.032;4.634;2023-04-03T05:51:04;103110.50;;;3.64
78859;BMP280;68210;52.032;4.634;2023-04-03T05:53:04;103124.09;;;3.79
78859;BMP280;68210;52.032;4.634;2023-04-03T05:55:05;103120.47;;;4.11
78859;BMP280;68210;52.032;4.634;2023-04-03T05:57:05;103108.97;;;4.42
78859;BMP280;68210;52.032;4.634;2023-04-03T05:59:06;103123.13;;;4.58
78859;BMP280;68210;52.032;4.634;2023-04-03T06:01:07;103117.81;;;4.37
78859;BMP280;68210;52.032;4.634;2023-04-03T06:03:08;103127.81;;;4.73
78859;BMP280;68210;52.032;4.634;2023-04-03T06:05:09;103116.13;;;4.88
78859;BMP280;68210;52.032;4.634;2023-04-03T06:07:13;103125.03;;;5.30
78859;BMP280;68210;52.032;4.634;2023-04-03T06:09:15;103125.25;;;4.87
78859;BMP280;68210;52.032;4.634;2023-04-03T06:11:17;103119.28;;;5.16
78859;BMP280;68210;52.032;4.634;2023-04-03T06:13:17;103124.38;;;5.54
78859;BMP280;68210;52.032;4.634;2023-04-03T06:15:18;103127.13;;;5.64
78859;BMP280;68210;52.032;4.634;2023-04-03T06:17:18;103130.31;;;6.06
78859;BMP280;68210;52.032;4.634;2023-04-03T06:19:18;103127.41;;;6.28
78859;BMP280;68210;52.032;4.634;2023-04-03T06:21:19;103122.34;;;6.46
78859;BMP280;68210;52.032;4.634;2023-04-03T06:23:19;103128.28;;;6.72
78859;BMP280;68210;52.032;4.634;2023-04-03T06:25:20;103124.00;;;6.86
78859;BMP280;68210;52.032;4.634;2023-04-03T06:27:21;103115.34;;;6.55
78859;BMP280;68210;52.032;4.634;2023-04-03T06:29:22;103119.69;;;6.85
78859;BMP280;68210;52.032;4.634;2023-04-03T06:31:22;103121.00;;;7.37
78859;BMP280;68210;52.032;4.634;2023-04-03T06:33:23;103123.44;;;6.99
78859;BMP280;68210;52.032;4.634;2023-04-03T06:35:23;103132.53;;;7.67
78859;BMP280;68210;52.032;4.634;2023-04-03T06:37:24;103129.66;;;7.29
78859;BMP280;68210;52.032;4.634;2023-04-03T06:39:30;103124.72;;;7.56
78859;BMP280;68210;52.032;4.634;2023-04-03T06:41:30;103132.91;;;8.03
78859;BMP280;68210;52.032;4.634;2023-04-03T06:43:31;103127.81;;;8.07
78859;BMP280;68210;52.032;4.634;2023-04-03T06:45:32;103124.25;;;8.11
78859;BMP280;68210;52.032;4.634;2023-04-03T06:47:32;103129.66;;;8.11
78859;BMP280;68210;52.032;4.634;2023-04-03T06:49:33;103126.09;;;7.33
78859;BMP280;68210;52.032;4.634;2023-04-03T06:51:34;103128.50;;;8.27
78859;BMP280;68210;52.032;4.634;2023-04-03T06:53:35;103130.44;;;8.21
78859;BMP280;68210;52.032;4.634;2023-04-03T06:55:35;103131.50;;;8.25
78859;BMP280;68210;52.032;4.634;2023-04-03T06:57:37;103137.59;;;8.46
78859;BMP280;68210;52.032;4.634;2023-04-03T06:59:37;103127.69;;;9.02
78859;BMP280;68210;52.032;4.634;2023-04-03T07:01:38;103132.81;;;9.32
78859;BMP280;68210;52.032;4.634;2023-04-03T07:03:39;103144.56;;;8.89
78859;BMP280;68210;52.032;4.634;2023-04-03T07:05:40;103146.28;;;8.80
78859;BMP280;68210;52.032;4.634;2023-04-03T07:07:40;103138.72;;;9.39
78859;BMP280;68210;52.032;4.634;2023-04-03T07:09:41;103146.50;;;9.45
78859;BMP280;68210;52.032;4.634;2023-04-03T07:11:43;103141.81;;;9.27
78859;BMP280;68210;52.032;4.634;2023-04-03T07:13:44;103152.00;;;8.74
78859;BMP280;68210;52.032;4.634;2023-04-03T07:15:45;103171.06;;;7.82
78859;BMP280;68210;52.032;4.634;2023-04-03T07:17:45;103154.19;;;8.24
78859;BMP280;68210;52.032;4.634;2023-04-03T07:19:46;103162.78;;;7.64
78859;BMP280;68210;52.032;4.634;2023-04-03T07:21:46;103162.88;;;8.64
78859;BMP280;68210;52.032;4.634;2023-04-03T07:23:47;103159.72;;;8.90
78859;BMP280;68210;52.032;4.634;2023-04-03T07:25:49;103170.13;;;9.39
78859;BMP280;68210;52.032;4.634;2023-04-03T07:27:50;103154.53;;;9.55
78859;BMP280;68210;52.032;4.634;2023-04-03T07:29:50;103160.63;;;9.42
78859;BMP280;68210;52.032;4.634;2023-04-03T07:31:51;103155.22;;;9.93
78859;BMP280;68210;52.032;4.634;2023-04-03T07:33:53;103149.84;;;10.11
78859;BMP280;68210;52.032;4.634;2023-04-03T07:35:53;103162.38;;;9.28
78859;BMP280;68210;52.032;4.634;2023-04-03T07:37:54;103166.94;;;9.89
78859;BMP280;68210;52.032;4.634;2023-04-03T07:39:55;103178.25;;;10.55
78859;BMP280;68210;52.032;4.634;2023-04-03T07:41:57;103157.06;;;10.57
78859;BMP280;68210;52.032;4.634;2023-04-03T07:43:57;103151.44;;;11.35
78859;BMP280;68210;52.032;4.634;2023-04-03T07:45:58;103157.13;;;10.52
78859;BMP280;68210;52.032;4.634;2023-04-03T07:48:00;103152.53;;;11.21
78859;BMP280;68210;52.032;4.634;2023-04-03T07:50:00;103166.78;;;11.57
78859;BMP280;68210;52.032;4.634;2023-04-03T07:52:01;103165.09;;;11.30
78859;BMP280;68210;52.032;4.634;2023-04-03T07:54:01;103174.81;;;9.80
78859;BMP280;68210;52.032;4.634;2023-04-03T07:56:02;103168.03;;;11.02
78859;BMP280;68210;52.032;4.634;2023-04-03T07:58:02;103177.91;;;10.62
78859;BMP280;68210;52.032;4.634;2023-04-03T08:00:04;103179.63;;;10.53
78859;BMP280;68210;52.032;4.634;2023-04-03T08:02:05;103196.44;;;10.73
78859;BMP280;68210;52.032;4.634;2023-04-03T08:04:05;103180.81;;;11.01
78859;BMP280;68210;52.032;4.634;2023-04-03T08:06:08;103184.34;;;10.06
78859;BMP280;68210;52.032;4.634;2023-04-03T08:08:10;103177.59;;;10.03
78859;BMP280;68210;52.032;4.634;2023-04-03T08:10:12;103184.78;;;9.62
78859;BMP280;68210;52.032;4.634;2023-04-03T08:12:12;103164.28;;;10.98
78859;BMP280;68210;52.032;4.634;2023-04-03T08:14:14;103172.09;;;10.86
78859;BMP280;68210;52.032;4.634;2023-04-03T08:16:20;103180.88;;;11.46
78859;BMP280;68210;52.032;4.634;2023-04-03T08:18:23;103181.31;;;11.35
78859;BMP280;68210;52.032;4.634;2023-04-03T08:20:24;103174.09;;;12.28
78859;BMP280;68210;52.032;4.634;2023-04-03T08:22:25;103183.00;;;11.62
78859;BMP280;68210;52.032;4.634;2023-04-03T08:24:26;103185.03;;;11.70
78859;BMP280;68210;52.032;4.634;2023-04-03T08:26:26;103180.53;;;11.66
78859;BMP280;68210;52.032;4.634;2023-04-03T08:28:27;103186.56;;;12.29
78859;BMP280;68210;52.032;4.634;2023-04-03T08:30:27;103188.59;;;12.24
78859;BMP280;68210;52.032;4.634;2023-04-03T08:32:28;103183.75;;;12.08
78859;BMP280;68210;52.032;4.634;2023-04-03T08:34:28;103199.28;;;10.63
78859;BMP280;68210;52.032;4.634;2023-04-03T08:36:29;103205.78;;;10.67
78859;BMP280;68210;52.032;4.634;2023-04-03T08:38:30;103199.56;;;12.06
78859;BMP280;68210;52.032;4.634;2023-04-03T08:40:30;103185.09;;;11.52
78859;BMP280;68210;52.032;4.634;2023-04-03T08:42:57;103190.19;;;11.72
78859;BMP280;68210;52.032;4.634;2023-04-03T08:45:08;103192.22;;;11.93
78859;BMP280;68210;52.032;4.634;2023-04-03T08:47:24;103193.34;;;12.67
78859;BMP280;68210;52.032;4.634;2023-04-03T08:49:41;103190.09;;;11.77
78859;BMP280;68210;52.032;4.634;2023-04-03T08:51:48;103187.19;;;11.10
78859;BMP280;68210;52.032;4.634;2023-04-03T08:53:57;103217.44;;;10.86
78859;BMP280;68210;52.032;4.634;2023-04-03T08:56:03;103180.78;;;10.29
78859;BMP280;68210;52.032;4.634;2023-04-03T08:58:25;103201.44;;;10.25
78859;BMP280;68210;52.032;4.634;2023-04-03T09:02:46;103220.84;;;9.85
78859;BMP280;68210;52.032;4.634;2023-04-03T09:04:47;103199.94;;;10.55
78859;BMP280;68210;52.032;4.634;2023-04-03T09:06:55;103189.53;;;10.44
78859;BMP280;68210;52.032;4.634;2023-04-03T09:11:21;103184.91;;;9.75
78859;BMP280;68210;52.032;4.634;2023-04-03T09:13:33;103193.75;;;9.85
78859;BMP280;68210;52.032;4.634;2023-04-03T09:15:37;103181.00;;;9.63
78859;BMP280;68210;52.032;4.634;2023-04-03T09:20:06;103200.06;;;9.53
78859;BMP280;68210;52.032;4.634;2023-04-03T09:22:23;103198.56;;;9.37
78859;BMP280;68210;52.032;4.634;2023-04-03T09:24:24;103198.41;;;9.80
78859;BMP280;68210;52.032;4.634;2023-04-03T09:26:29;103195.53;;;9.10
78859;BMP280;68210;52.032;4.634;2023-04-03T09:28:34;103186.72;;;9.33
78859;BMP280;68210;52.032;4.634;2023-04-03T09:30:35;103195.84;;;9.37
78859;BMP280;68210;52.032;4.634;2023-04-03T09:32:36;103202.34;;;8.65
78859;BMP280;68210;52.032;4.634;2023-04-03T09:34:37;103208.06;;;9.02
78859;BMP280;68210;52.032;4.634;2023-04-03T09:36:39;103210.94;;;8.77
78859;BMP280;68210;52.032;4.634;2023-04-03T09:38:40;103180.34;;;9.19
78859;BMP280;68210;52.032;4.634;2023-04-03T09:40:45;103171.28;;;9.01
78859;BMP280;68210;52.032;4.634;2023-04-03T09:42:46;103181.53;;;8.13
78859;BMP280;68210;52.032;4.634;2023-04-03T09:44:55;103192.16;;;8.57
78859;BMP280;68210;52.032;4.634;2023-04-03T09:46:57;103174.59;;;8.55
78859;BMP280;68210;52.032;4.634;2023-04-03T09:49:00;103173.09;;;8.72
78859;BMP280;68210;52.032;4.634;2023-04-03T09:51:01;103150.47;;;8.96
78859;BMP280;68210;52.032;4.634;2023-04-03T09:53:07;103173.38;;;8.71
78859;BMP280;68210;52.032;4.634;2023-04-03T09:55:27;103155.19;;;9.42
78859;BMP280;68210;52.032;4.634;2023-04-03T09:57:32;103159.22;;;8.83
78859;BMP280;68210;52.032;4.634;2023-04-03T09:59:33;103176.06;;;9.41
78859;BMP280;68210;52.032;4.634;2023-04-03T10:01:36;103170.00;;;9.21
78859;BMP280;68210;52.032;4.634;2023-04-03T10:03:36;103174.88;;;8.91
78859;BMP280;68210;52.032;4.634;2023-04-03T10:05:41;103178.66;;;8.90
78859;BMP280;68210;52.032;4.634;2023-04-03T10:07:42;103156.72;;;8.92
78859;BMP280;68210;52.032;4.634;2023-04-03T10:09:54;103150.00;;;9.22
78859;BMP280;68210;52.032;4.634;2023-04-03T10:12:05;103148.94;;;9.46
78859;BMP280;68210;52.032;4.634;2023-04-03T10:14:16;103152.94;;;8.55
78859;BMP280;68210;52.032;4.634;2023-04-03T10:16:20;103168.16;;;8.84
78859;BMP280;68210;52.032;4.634;2023-04-03T10:18:29;103148.09;;;8.90
78859;BMP280;68210;52.032;4.634;2023-04-03T10:20:39;103129.97;;;9.69
78859;BMP280;68210;52.032;4.634;2023-04-03T10:27:08;103099.94;;;9.94
78859;BMP280;68210;52.032;4.634;2023-04-03T10:29:36;103123.06;;;9.59
78859;BMP280;68210;52.032;4.634;2023-04-03T10:34:21;103146.06;;;9.89
78859;BMP280;68210;52.032;4.634;2023-04-03T10:41:23;103122.31;;;9.76
78859;BMP280;68210;52.032;4.634;2023-04-03T10:45:54;103133.09;;;9.58
78859;BMP280;68210;52.032;4.634;2023-04-03T10:47:59;103140.47;;;9.53
78859;BMP280;68210;52.032;4.634;2023-04-03T10:52:39;103121.97;;;9.83
78859;BMP280;68210;52.032;4.634;2023-04-03T10:54:55;103141.81;;;9.78
78859;BMP280;68210;52.032;4.634;2023-04-03T10:57:01;103127.63;;;10.09
78859;BMP280;68210;52.032;4.634;2023-04-03T11:01:16;103121.25;;;10.01
78859;BMP280;68210;52.032;4.634;2023-04-03T11:03:35;103128.16;;;9.88
78859;BMP280;68210;52.032;4.634;2023-04-03T11:05:37;103119.72;;;9.15
78859;BMP280;68210;52.032;4.634;2023-04-03T11:07:43;103112.59;;;9.24
78859;BMP280;68210;52.032;4.634;2023-04-03T11:09:49;103120.63;;;9.34
78859;BMP280;68210;52.032;4.634;2023-04-03T11:12:00;103129.06;;;9.56
78859;BMP280;68210;52.032;4.634;2023-04-03T11:14:24;103126.88;;;9.30
78859;BMP280;68210;52.032;4.634;2023-04-03T11:16:27;103116.00;;;9.35
78859;BMP280;68210;52.032;4.634;2023-04-03T11:18:37;103101.53;;;8.93
78859;BMP280;68210;52.032;4.634;2023-04-03T11:20:47;103116.31;;;9.33
78859;BMP280;68210;52.032;4.634;2023-04-03T11:22:54;103113.88;;;9.32
78859;BMP280;68210;52.032;4.634;2023-04-03T11:27:05;103093.50;;;9.85
78859;BMP280;68210;52.032;4.634;2023-04-03T11:29:10;103098.19;;;9.57
78859;BMP280;68210;52.032;4.634;2023-04-03T11:35:58;103085.66;;;9.61
78859;BMP280;68210;52.032;4.634;2023-04-03T11:38:02;103081.00;;;9.66
78859;BMP280;68210;52.032;4.634;2023-04-03T11:42:16;103112.78;;;8.77
78859;BMP280;68210;52.032;4.634;2023-04-03T11:44:36;103099.34;;;8.62
78859;BMP280;68210;52.032;4.634;2023-04-03T11:46:57;103062.72;;;8.79
78859;BMP280;68210;52.032;4.634;2023-04-03T11:48:58;103055.38;;;9.08
78859;BMP280;68210;52.032;4.634;2023-04-03T11:53:40;103060.59;;;9.27
78859;BMP280;68210;52.032;4.634;2023-04-03T11:59:59;103048.22;;;9.44
78859;BMP280;68210;52.032;4.634;2023-04-03T12:01:59;103033.63;;;9.64
78859;BMP280;68210;52.032;4.634;2023-04-03T12:04:09;103043.19;;;9.56
78859;BMP280;68210;52.032;4.634;2023-04-03T12:10:32;103058.25;;;9.44
78859;BMP280;68210;52.032;4.634;2023-04-03T12:12:36;103045.16;;;9.28
78859;BMP280;68210;52.032;4.634;2023-04-03T12:14:37;103067.22;;;9.16
78859;BMP280;68210;52.032;4.634;2023-04-03T12:20:55;103064.06;;;9.05
78859;BMP280;68210;52.032;4.634;2023-04-03T12:23:32;103030.47;;;8.82
78859;BMP280;68210;52.032;4.634;2023-04-03T12:28:18;103083.03;;;9.05
78859;BMP280;68210;52.032;4.634;2023-04-03T12:30:29;103031.25;;;8.88
78859;BMP280;68210;52.032;4.634;2023-04-03T12:35:23;103037.38;;;8.98
78859;BMP280;68210;52.032;4.634;2023-04-03T12:37:30;103056.03;;;9.23
78859;BMP280;68210;52.032;4.634;2023-04-03T12:42:16;103032.72;;;9.04
78859;BMP280;68210;52.032;4.634;2023-04-03T12:46:36;103003.00;;;8.99
78859;BMP280;68210;52.032;4.634;2023-04-03T12:50:40;103001.75;;;9.14
78859;BMP280;68210;52.032;4.634;2023-04-03T12:52:45;103019.94;;;9.09
78859;BMP280;68210;52.032;4.634;2023-04-03T12:54:47;103031.13;;;9.49